Time;durP1;ratioP1;P1;durP2;ratioP2;P2;SDS_P1;SDS_P2;PMS_P1;PMS_P2;Temp;Humidity;BMP_temperature;BMP_pressure;BME280_temperature;BME280_humidity;BME280_pressure;Samples;Min_cycle;Max_cycle;Signal;HPM_P1;HPM_P2
2022/09/29 00:02:07;;;;;;;4.10;2.87;;;8.10;99.90;;;;;;4974640;28;20196;-80
2022/09/29 00:04:34;;;;;;;4.10;3.00;;;8.10;99.90;;;;;;4974086;28;20212;-80
2022/09/29 00:07:01;;;;;;;3.80;3.13;;;8.10;99.90;;;;;;4974222;28;20225;-79
2022/09/29 00:09:29;;;;;;;3.10;2.83;;;8.10;99.90;;;;;;4974452;28;20211;-80
2022/09/29 00:11:57;;;;;;;5.10;4.10;;;8.10;99.90;;;;;;4973272;28;20204;-80
2022/09/29 00:14:24;;;;;;;4.77;2.97;;;8.10;99.90;;;;;;4974630;28;20283;-79
2022/09/29 00:16:53;;;;;;;3.10;2.70;;;8.10;99.90;;;;;;4974370;28;20208;-80
2022/09/29 00:19:20;;;;;;;3.83;3.53;;;8.10;99.90;;;;;;4978340;28;20211;-79
2022/09/29 00:21:46;;;;;;;4.23;2.87;;;8.00;99.90;;;;;;4993509;28;20249;-80
2022/09/29 00:24:13;;;;;;;3.50;3.20;;;8.00;99.90;;;;;;4992741;28;20212;-80
2022/09/29 00:26:43;;;;;;;4.20;2.90;;;8.00;99.90;;;;;;4972783;28;20224;-80
2022/09/29 00:29:10;;;;;;;5.13;3.20;;;8.00;99.90;;;;;;4974763;28;20201;-79
2022/09/29 00:31:37;;;;;;;3.73;3.33;;;8.00;99.90;;;;;;4974355;28;20205;-79
2022/09/29 00:34:04;;;;;;;3.67;3.20;;;8.00;99.90;;;;;;4974291;28;20212;-80
2022/09/29 00:36:31;;;;;;;3.93;3.47;;;8.00;99.90;;;;;;4974522;28;20199;-80
2022/09/29 00:38:59;;;;;;;3.93;3.27;;;8.00;99.90;;;;;;4973277;28;20203;-80
2022/09/29 00:41:27;;;;;;;3.77;3.40;;;8.00;99.90;;;;;;4974122;28;20200;-80
2022/09/29 00:43:58;;;;;;;4.53;3.40;;;7.90;99.90;;;;;;4975184;28;20205;-79
2022/09/29 00:46:36;;;;;;;3.10;2.80;;;7.90;99.90;;;;;;4980117;28;20320;-79
2022/09/29 00:49:08;;;;;;;3.30;3.00;;;7.90;99.90;;;;;;4974148;28;20216;-79
2022/09/29 00:51:37;;;;;;;3.10;2.80;;;7.90;99.90;;;;;;4973903;28;20196;-80
2022/09/29 00:54:05;;;;;;;3.70;3.30;;;7.90;99.90;;;;;;4973120;28;20211;-80
2022/09/29 00:56:34;;;;;;;3.60;3.10;;;7.80;99.90;;;;;;4973868;28;20291;-80
2022/09/29 00:59:06;;;;;;;3.33;3.03;;;7.80;99.90;;;;;;4982250;28;20596;-80
2022/09/29 01:01:33;;;;;;;3.40;2.70;;;7.80;99.90;;;;;;4993197;28;20204;-80
2022/09/29 01:04:04;;;;;;;3.37;3.07;;;7.80;99.90;;;;;;4992166;28;20219;-79
2022/09/29 01:06:36;;;;;;;5.10;3.17;;;7.80;99.90;;;;;;4993560;28;20262;-80
2022/09/29 01:09:05;;;;;;;4.53;3.33;;;7.80;99.90;;;;;;4976603;28;20200;-80
2022/09/29 01:11:33;;;;;;;5.63;3.70;;;7.80;99.90;;;;;;4973889;28;20201;-81
2022/09/29 01:14:06;;;;;;;3.67;3.33;;;7.90;99.90;;;;;;4973228;28;20208;-80
2022/09/29 01:16:35;;;;;;;3.60;3.17;;;7.90;99.90;;;;;;4973623;28;20664;-80
2022/09/29 01:19:07;;;;;;;3.57;3.20;;;7.90;99.90;;;;;;4973653;28;20209;-81
2022/09/29 01:21:41;;;;;;;3.43;3.07;;;7.90;99.90;;;;;;4972971;28;20307;-81
2022/09/29 01:24:54;;;;;;;3.40;3.10;;;7.90;99.90;;;;;;4973300;28;20204;-80
2022/09/29 01:27:39;;;;;;;3.47;2.93;;;7.90;99.90;;;;;;4977984;28;20599;-80
2022/09/29 01:30:18;;;;;;;3.90;3.43;;;7.90;99.90;;;;;;4973139;28;20189;-81
2022/09/29 01:33:15;;;;;;;3.40;3.10;;;7.80;99.90;;;;;;4973663;28;20204;-80
2022/09/29 01:35:52;;;;;;;4.27;3.20;;;7.90;99.90;;;;;;4973206;28;20225;-80
2022/09/29 01:38:42;;;;;;;3.67;2.90;;;7.80;99.90;;;;;;4975703;28;20193;-81
2022/09/29 01:41:16;;;;;;;3.60;3.27;;;7.80;99.90;;;;;;4976682;28;20793;-81
2022/09/29 01:43:52;;;;;;;4.07;3.40;;;7.80;99.90;;;;;;4976132;28;20215;-79
2022/09/29 01:46:24;;;;;;;3.73;3.27;;;7.80;99.90;;;;;;4969156;28;20251;-79
2022/09/29 01:48:56;;;;;;;3.07;2.73;;;7.70;99.90;;;;;;4977068;28;20215;-80
2022/09/29 01:51:29;;;;;;;3.10;2.80;;;7.70;99.90;;;;;;4968591;28;20208;-79
2022/09/29 01:54:01;;;;;;;3.27;2.97;;;7.60;99.90;;;;;;4977010;28;20280;-80
2022/09/29 01:56:32;;;;;;;3.40;3.10;;;7.60;99.90;;;;;;4976488;28;20283;-79
2022/09/29 01:59:05;;;;;;;3.33;3.00;;;7.60;99.90;;;;;;4976982;28;20225;-79
2022/09/29 02:01:38;;;;;;;3.73;3.43;;;7.60;99.90;;;;;;4977270;28;20189;-79
2022/09/29 02:04:13;;;;;;;3.50;3.20;;;7.60;99.90;;;;;;4976151;28;20295;-79
2022/09/29 02:06:49;;;;;;;3.60;3.07;;;7.60;99.90;;;;;;4976397;28;20232;-79
2022/09/29 02:09:20;;;;;;;3.60;3.30;;;7.60;99.90;;;;;;4976421;28;20275;-79
2022/09/29 02:11:49;;;;;;;3.77;3.33;;;7.50;99.90;;;;;;4975921;28;20665;-79
2022/09/29 02:14:19;;;;;;;3.93;3.20;;;7.50;99.90;;;;;;4976533;28;20775;-78
2022/09/29 02:16:50;;;;;;;2.90;2.70;;;7.50;99.90;;;;;;4976695;28;20201;-79
2022/09/29 02:19:20;;;;;;;3.40;3.10;;;7.40;99.90;;;;;;4975497;28;20293;-79
2022/09/29 02:21:47;;;;;;;3.83;3.43;;;7.40;99.90;;;;;;4976117;28;20544;-79
2022/09/29 02:24:15;;;;;;;3.90;3.60;;;7.40;99.90;;;;;;4976073;28;20798;-78
2022/09/29 02:26:44;;;;;;;3.47;3.13;;;7.30;99.90;;;;;;4976162;28;20216;-80
2022/09/29 02:29:11;;;;;;;3.80;2.97;;;7.30;99.90;;;;;;4976539;28;20205;-79
2022/09/29 02:31:39;;;;;;;3.77;3.30;;;7.30;99.90;;;;;;4975533;28;20290;-79
2022/09/29 02:34:08;;;;;;;3.63;3.33;;;7.30;99.90;;;;;;4959134;28;20276;-79
2022/09/29 02:36:46;;;;;;;5.07;3.60;;;7.30;99.90;;;;;;4976719;28;20660;-80
2022/09/29 02:39:17;;;;;;;3.87;3.47;;;7.30;99.90;;;;;;4975702;28;20712;-79
2022/09/29 02:41:51;;;;;;;5.47;4.60;;;7.30;99.90;;;;;;4975983;28;20519;-79
2022/09/29 02:44:32;;;;;;;4.20;3.80;;;7.30;99.90;;;;;;4976165;28;20209;-79
2022/09/29 02:47:25;;;;;;;4.00;3.70;;;7.30;99.90;;;;;;4975044;28;20509;-80
2022/09/29 02:50:14;;;;;;;4.20;3.67;;;7.20;99.90;;;;;;4975139;28;20299;-78
2022/09/29 02:52:50;;;;;;;4.63;3.90;;;7.30;99.90;;;;;;4993348;28;20200;-80
2022/09/29 02:55:20;;;;;;;4.43;4.03;;;7.20;99.90;;;;;;4995377;28;20207;-79
2022/09/29 02:57:53;;;;;;;3.50;3.20;;;7.20;99.90;;;;;;4980657;28;20229;-79
2022/09/29 03:00:20;;;;;;;4.03;3.67;;;7.20;99.90;;;;;;4975090;28;20191;-79
2022/09/29 03:02:47;;;;;;;3.97;3.67;;;7.20;99.90;;;;;;4975285;28;20235;-78
2022/09/29 03:05:16;;;;;;;3.80;3.50;;;7.20;99.90;;;;;;4989928;28;20295;-79
2022/09/29 03:07:45;;;;;;;4.73;3.97;;;7.20;99.90;;;;;;4994280;28;20224;-79
2022/09/29 03:10:13;;;;;;;4.30;3.63;;;7.20;99.90;;;;;;4994710;28;20196;-78
2022/09/29 03:12:40;;;;;;;4.43;3.80;;;7.10;99.90;;;;;;4983296;28;20245;-80
2022/09/29 03:15:11;;;;;;;3.80;3.40;;;7.10;99.90;;;;;;4975162;28;20211;-79
2022/09/29 03:17:38;;;;;;;4.40;4.00;;;7.10;99.90;;;;;;4975154;28;20201;-79
2022/09/29 03:20:06;;;;;;;6.13;4.07;;;7.10;99.90;;;;;;4975136;28;20640;-77
2022/09/29 03:22:33;;;;;;;4.20;3.80;;;7.10;99.90;;;;;;4974487;28;20204;-79
2022/09/29 03:25:02;;;;;;;4.47;4.07;;;7.00;99.90;;;;;;4990989;28;20304;-79
2022/09/29 03:27:29;;;;;;;5.63;4.10;;;7.00;99.90;;;;;;4983854;28;20246;-77
2022/09/29 03:29:56;;;;;;;4.60;4.20;;;7.00;99.90;;;;;;4974913;28;20597;-80
2022/09/29 03:32:23;;;;;;;4.80;4.30;;;6.90;99.90;;;;;;4975041;28;20560;-79
2022/09/29 03:34:50;;;;;;;3.90;3.60;;;6.90;99.90;;;;;;4974296;28;20201;-79
2022/09/29 03:37:17;;;;;;;4.30;3.90;;;6.90;99.90;;;;;;4975270;28;20556;-80
2022/09/29 03:39:44;;;;;;;4.30;3.90;;;6.90;99.90;;;;;;4975442;28;20271;-79
2022/09/29 03:42:12;;;;;;;4.63;4.03;;;6.80;99.90;;;;;;4985192;28;20211;-79
2022/09/29 03:44:39;;;;;;;4.57;4.17;;;6.80;99.90;;;;;;4994348;28;20295;-78
2022/09/29 03:47:05;;;;;;;4.50;3.90;;;6.80;99.90;;;;;;4992523;28;20239;-78
2022/09/29 03:49:32;;;;;;;4.40;4.00;;;6.80;99.90;;;;;;4974484;28;20621;-79
2022/09/29 03:51:59;;;;;;;4.77;3.90;;;6.70;99.90;;;;;;4974553;28;20208;-79
2022/09/29 03:54:27;;;;;;;4.70;4.23;;;6.70;99.90;;;;;;4974805;28;20201;-79
2022/09/29 03:56:53;;;;;;;4.93;4.40;;;6.70;99.90;;;;;;4974030;28;20247;-79
2022/09/29 03:59:22;;;;;;;5.23;4.20;;;6.70;99.90;;;;;;4974654;28;20632;-79
2022/09/29 04:01:48;;;;;;;4.83;4.17;;;6.70;99.90;;;;;;4974052;28;20295;-80
2022/09/29 04:04:15;;;;;;;4.83;4.43;;;6.70;99.90;;;;;;4973988;28;20267;-79
2022/09/29 04:06:42;;;;;;;4.70;4.30;;;6.70;99.90;;;;;;4974579;28;20200;-80
2022/09/29 04:09:09;;;;;;;4.47;4.07;;;6.70;99.90;;;;;;4974543;28;20232;-80
2022/09/29 04:11:36;;;;;;;5.43;4.37;;;6.70;99.90;;;;;;4976745;28;20660;-79
2022/09/29 04:14:03;;;;;;;4.17;3.77;;;6.60;99.90;;;;;;4994085;28;20298;-80
2022/09/29 04:16:32;;;;;;;5.40;4.10;;;6.60;99.90;;;;;;4985924;28;20280;-78
2022/09/29 04:18:59;;;;;;;5.03;4.53;;;6.60;99.90;;;;;;4973714;28;20204;-79
2022/09/29 04:21:25;;;;;;;6.07;5.47;;;6.70;99.90;;;;;;4974137;28;20295;-78
2022/09/29 04:23:52;;;;;;;6.07;5.13;;;6.70;99.90;;;;;;4973488;28;20700;-79
2022/09/29 04:26:19;;;;;;;5.80;5.17;;;6.70;99.90;;;;;;4974259;28;20212;-78
2022/09/29 04:28:47;;;;;;;5.33;4.80;;;6.80;99.90;;;;;;4973762;28;20236;-80
2022/09/29 04:31:14;;;;;;;4.80;4.33;;;6.80;99.90;;;;;;4973547;28;20197;-79
2022/09/29 04:33:42;;;;;;;5.67;4.67;;;6.70;99.90;;;;;;4974211;28;20211;-79
2022/09/29 04:36:09;;;;;;;5.80;4.77;;;6.70;99.90;;;;;;4973805;28;20619;-79
2022/09/29 04:38:39;;;;;;;5.63;5.10;;;6.70;99.90;;;;;;4989085;28;20204;-79
2022/09/29 04:41:05;;;;;;;6.33;4.70;;;6.70;99.90;;;;;;4993684;28;20196;-79
2022/09/29 04:43:32;;;;;;;6.10;5.40;;;6.60;99.90;;;;;;4993492;28;20283;-79
2022/09/29 04:46:04;;;;;;;5.40;4.90;;;6.60;99.90;;;;;;4976038;28;20209;-80
2022/09/29 04:48:31;;;;;;;5.67;5.00;;;6.60;99.90;;;;;;4973613;28;20319;-80
2022/09/29 04:50:59;;;;;;;5.73;4.97;;;6.60;99.90;;;;;;4973562;28;20271;-79
2022/09/29 04:53:26;;;;;;;6.87;5.40;;;6.60;99.90;;;;;;4973621;28;20207;-80
2022/09/29 04:55:53;;;;;;;6.53;5.87;;;6.60;99.90;;;;;;4973804;28;20211;-80
2022/09/29 04:58:20;;;;;;;5.80;5.30;;;6.60;99.90;;;;;;4973576;28;20224;-79
2022/09/29 05:00:47;;;;;;;6.37;5.73;;;6.60;99.90;;;;;;4980307;28;20227;-80
2022/09/29 05:03:14;;;;;;;5.47;4.93;;;6.60;99.90;;;;;;4993289;28;20224;-79
2022/09/29 05:05:40;;;;;;;6.03;5.43;;;6.60;99.90;;;;;;4992635;28;20211;-80
2022/09/29 05:08:09;;;;;;;6.47;5.00;;;6.50;99.90;;;;;;4978499;28;20216;-79
2022/09/29 05:10:37;;;;;;;5.97;5.37;;;6.50;99.90;;;;;;4973376;28;20197;-79
2022/09/29 05:13:03;;;;;;;6.27;5.67;;;6.50;99.90;;;;;;4975991;28;20287;-79
2022/09/29 05:15:30;;;;;;;7.10;5.97;;;6.50;99.90;;;;;;4979166;28;20605;-78
2022/09/29 05:18:02;;;;;;;6.17;5.27;;;6.50;99.90;;;;;;4979768;28;20597;-78
2022/09/29 05:20:29;;;;;;;5.77;5.27;;;6.50;99.90;;;;;;4998985;28;20246;-78
2022/09/29 05:22:58;;;;;;;5.60;5.10;;;6.50;99.90;;;;;;4999431;28;20200;-78
2022/09/29 05:25:27;;;;;;;5.97;5.10;;;6.50;99.90;;;;;;4979674;28;20204;-78
2022/09/29 05:27:54;;;;;;;5.43;4.90;;;6.40;99.90;;;;;;4979032;28;20223;-78
2022/09/29 05:30:21;;;;;;;7.60;6.40;;;6.40;99.90;;;;;;4979798;28;20224;-78
2022/09/29 05:32:48;;;;;;;5.83;5.20;;;6.40;99.90;;;;;;4980122;28;20206;-79
2022/09/29 05:35:15;;;;;;;6.13;5.17;;;6.40;99.90;;;;;;4979151;28;20226;-78
2022/09/29 05:37:42;;;;;;;5.70;5.10;;;6.40;99.90;;;;;;4979865;28;20691;-79
2022/09/29 05:40:10;;;;;;;5.83;5.30;;;6.40;99.90;;;;;;4979828;28;20681;-78
2022/09/29 05:42:39;;;;;;;5.57;5.00;;;6.40;99.90;;;;;;4979156;28;20240;-78
2022/09/29 05:45:09;;;;;;;6.20;5.60;;;6.40;99.90;;;;;;4991446;28;20207;-77
2022/09/29 05:47:35;;;;;;;5.60;5.10;;;6.40;99.90;;;;;;4996983;28;20246;-79
2022/09/29 05:50:03;;;;;;;5.40;4.90;;;6.40;99.90;;;;;;4979113;28;20846;-77
2022/09/29 05:52:30;;;;;;;6.97;5.60;;;6.30;99.90;;;;;;4979212;28;20675;-78
2022/09/29 05:54:56;;;;;;;8.07;6.10;;;6.30;99.90;;;;;;4979304;28;20283;-77
2022/09/29 05:57:23;;;;;;;5.97;5.30;;;6.30;99.90;;;;;;4979202;28;20319;-78
2022/09/29 05:59:52;;;;;;;6.63;5.93;;;6.30;99.90;;;;;;4978750;28;20630;-78
2022/09/29 06:02:18;;;;;;;8.20;6.40;;;6.30;99.90;;;;;;4978820;28;20721;-78
2022/09/29 06:04:45;;;;;;;5.97;5.37;;;6.30;99.90;;;;;;4978891;28;20208;-78
2022/09/29 06:07:12;;;;;;;7.60;6.80;;;6.30;99.90;;;;;;4979288;28;20784;-77
2022/09/29 06:09:39;;;;;;;7.50;6.47;;;6.30;99.90;;;;;;4978729;28;20629;-78
2022/09/29 06:12:06;;;;;;;8.10;7.27;;;6.30;99.90;;;;;;4978803;28;20671;-78
2022/09/29 06:14:33;;;;;;;7.67;6.90;;;6.40;99.90;;;;;;4979216;28;20197;-78
2022/09/29 06:17:01;;;;;;;8.37;7.00;;;6.40;99.90;;;;;;4978558;28;20534;-78
2022/09/29 06:19:28;;;;;;;7.47;6.77;;;6.40;99.90;;;;;;4979014;28;20200;-78
2022/09/29 06:21:55;;;;;;;8.90;6.90;;;6.40;99.90;;;;;;4978943;28;20207;-77
2022/09/29 06:24:22;;;;;;;6.90;6.20;;;6.40;99.90;;;;;;4975754;28;20204;-78
2022/09/29 06:26:49;;;;;;;7.17;6.47;;;6.40;99.90;;;;;;4976280;28;20207;-79
2022/09/29 06:29:16;;;;;;;8.73;6.30;;;6.50;99.90;;;;;;4975720;28;20500;-79
2022/09/29 06:31:42;;;;;;;7.27;6.33;;;6.50;99.90;;;;;;4975576;28;20212;-80
2022/09/29 06:34:11;;;;;;;7.27;6.43;;;6.50;99.90;;;;;;4976074;28;20235;-78
2022/09/29 06:39:25;;;;;;;8.30;7.43;;;6.50;99.90;;;;;;4975560;28;20854;-78
2022/09/29 06:41:53;;;;;;;7.00;6.30;;;6.50;99.90;;;;;;4975834;28;20212;-79
2022/09/29 06:44:22;;;;;;;9.43;8.00;;;6.50;99.90;;;;;;4975541;28;20197;-80
2022/09/29 06:46:50;;;;;;;9.03;7.50;;;6.60;99.90;;;;;;4975190;28;20236;-80
2022/09/29 06:49:19;;;;;;;9.03;7.20;;;6.60;99.90;;;;;;4975727;28;20219;-80
2022/09/29 06:51:46;;;;;;;9.03;7.97;;;6.60;99.90;;;;;;4975442;28;20216;-80
2022/09/29 06:54:13;;;;;;;11.40;9.00;;;6.70;99.90;;;;;;4988430;28;20291;-80
2022/09/29 06:56:41;;;;;;;11.47;10.10;;;6.70;99.90;;;;;;4994844;28;20207;-80
2022/09/29 06:59:08;;;;;;;11.80;9.13;;;6.80;99.90;;;;;;4994612;28;20227;-79
2022/09/29 07:01:35;;;;;;;11.33;9.13;;;6.80;99.90;;;;;;4990871;28;20327;-78
2022/09/29 07:04:02;;;;;;;12.00;9.93;;;6.90;99.90;;;;;;4994739;28;20631;-79
2022/09/29 07:06:31;;;;;;;14.20;11.77;;;7.00;99.90;;;;;;4994397;28;20833;-78
2022/09/29 07:08:58;;;;;;;14.23;12.17;;;7.10;99.90;;;;;;4985824;28;20251;-79
2022/09/29 07:11:26;;;;;;;16.00;12.43;;;7.10;99.90;;;;;;4975206;28;20207;-80
2022/09/29 07:13:53;;;;;;;18.57;14.33;;;7.30;99.90;;;;;;4974187;28;20298;-80
2022/09/29 07:16:22;;;;;;;19.47;14.30;;;7.30;99.90;;;;;;4974978;28;20616;-79
2022/09/29 07:18:49;;;;;;;16.70;13.10;;;7.40;99.90;;;;;;4975247;28;20590;-80
2022/09/29 07:21:17;;;;;;;15.97;11.93;;;7.50;99.90;;;;;;4974833;28;20212;-80
2022/09/29 07:23:46;;;;;;;16.33;12.30;;;7.50;99.90;;;;;;4975437;28;20200;-77
2022/09/29 07:26:15;;;;;;;14.57;12.27;;;7.50;99.90;;;;;;4975533;28;20288;-77
2022/09/29 07:28:42;;;;;;;17.60;13.57;;;7.50;99.90;;;;;;4974329;28;20923;-79
2022/09/29 07:31:12;;;;;;;22.27;16.50;;;7.60;99.90;;;;;;4974860;28;20661;-80
2022/09/29 07:33:38;;;;;;;27.13;19.00;;;7.70;99.90;;;;;;4974615;28;20228;-79
2022/09/29 07:36:06;;;;;;;32.77;23.13;;;7.80;99.90;;;;;;4980739;28;20287;-77
2022/09/29 07:38:33;;;;;;;30.27;21.47;;;7.90;99.90;;;;;;4992939;28;20306;-79
2022/09/29 07:41:02;;;;;;;27.87;21.10;;;8.00;99.90;;;;;;4992575;28;20513;-78
2022/09/29 07:43:30;;;;;;;26.63;20.07;;;8.10;99.90;;;;;;4994098;28;20222;-79
2022/09/29 07:45:58;;;;;;;27.07;20.37;;;8.10;99.90;;;;;;4974494;28;20937;-79
2022/09/29 07:48:26;;;;;;;25.13;19.60;;;8.20;99.90;;;;;;4972530;28;20232;-81
2022/09/29 07:50:59;;;;;;;26.93;20.73;;;8.30;99.90;;;;;;4974207;28;20213;-79
2022/09/29 07:53:26;;;;;;;27.03;19.77;;;8.30;99.90;;;;;;4974767;28;20201;-81
2022/09/29 07:55:53;;;;;;;24.37;17.70;;;8.40;99.90;;;;;;4973854;28;20204;-79
2022/09/29 07:58:21;;;;;;;25.10;18.87;;;8.50;99.90;;;;;;4974668;28;20315;-79
2022/09/29 08:00:53;;;;;;;24.23;19.13;;;8.50;99.90;;;;;;4979439;28;20206;-79
2022/09/29 08:03:20;;;;;;;25.23;18.13;;;8.60;99.90;;;;;;4992790;28;20800;-79
2022/09/29 08:05:48;;;;;;;25.23;19.07;;;8.60;99.90;;;;;;4991660;28;20196;-81
2022/09/29 08:08:15;;;;;;;23.93;17.47;;;8.70;99.90;;;;;;4976950;28;20208;-81
2022/09/29 08:10:42;;;;;;;25.03;18.43;;;8.70;99.90;;;;;;4993615;28;20212;-81
2022/09/29 08:13:09;;;;;;;23.30;17.77;;;8.80;99.90;;;;;;4980965;28;20212;-82
2022/09/29 08:15:37;;;;;;;22.77;17.40;;;8.90;99.90;;;;;;4974870;28;20200;-83
2022/09/29 08:18:04;;;;;;;27.87;19.30;;;9.00;99.90;;;;;;4974370;28;20291;-83
2022/09/29 08:20:31;;;;;;;23.40;17.63;;;9.10;99.90;;;;;;4975501;28;20295;-83
2022/09/29 08:22:58;;;;;;;26.67;19.07;;;9.20;99.90;;;;;;4974247;28;20211;-81
2022/09/29 08:25:25;;;;;;;23.23;17.97;;;9.30;99.90;;;;;;4974539;28;20564;-79
2022/09/29 08:27:53;;;;;;;24.67;18.70;;;9.40;99.90;;;;;;4974354;28;20219;-80
2022/09/29 08:30:21;;;;;;;22.77;18.13;;;9.50;99.90;;;;;;4973298;28;20760;-81
2022/09/29 08:32:53;;;;;;;22.47;18.47;;;9.60;99.90;;;;;;4974054;28;20295;-78
2022/09/29 08:35:20;;;;;;;29.10;20.93;;;9.80;99.90;;;;;;4973167;28;20197;-80
2022/09/29 08:37:47;;;;;;;28.53;21.57;;;9.90;99.90;;;;;;4984782;28;20203;-80
2022/09/29 08:40:15;;;;;;;26.63;20.30;;;10.10;99.90;;;;;;4992130;28;20207;-79
2022/09/29 08:42:50;;;;;;;29.30;22.47;;;10.20;99.90;;;;;;4993178;28;20286;-79
2022/09/29 08:45:24;;;;;;;27.03;19.87;;;10.30;99.90;;;;;;4988417;28;20222;-79
2022/09/29 08:48:01;;;;;;;28.33;19.47;;;10.40;99.90;;;;;;4992167;28;20326;-78
2022/09/29 08:50:31;;;;;;;29.17;21.90;;;10.50;99.90;;;;;;4989274;28;20237;-78
2022/09/29 08:53:05;;;;;;;26.37;20.00;;;10.60;99.90;;;;;;4991712;28;20196;-79
2022/09/29 08:55:41;;;;;;;31.90;22.23;;;10.70;99.90;;;;;;4979174;28;20292;-79
2022/09/29 08:58:12;;;;;;;24.90;19.83;;;10.80;99.90;;;;;;4972437;28;20308;-80
2022/09/29 09:00:45;;;;;;;29.60;21.47;;;10.90;99.90;;;;;;4987535;28;20203;-81
2022/09/29 09:03:37;;;;;;;30.90;21.63;;;11.10;99.90;;;;;;4985644;28;20283;-80
2022/09/29 09:06:13;;;;;;;31.67;20.73;;;11.20;99.90;;;;;;4924130;28;20303;-78
2022/09/29 09:09:00;;;;;;;25.87;17.97;;;11.30;99.90;;;;;;4972709;28;20230;-80
2022/09/29 09:11:43;;;;;;;23.30;16.90;;;11.40;99.90;;;;;;4973204;28;20232;-79
2022/09/29 09:14:25;;;;;;;20.00;13.97;;;11.50;99.90;;;;;;4972893;28;20674;-81
2022/09/29 09:17:01;;;;;;;19.17;12.97;;;11.60;99.90;;;;;;4973272;28;20619;-80
2022/09/29 09:19:44;;;;;;;20.17;12.70;;;11.70;99.90;;;;;;4973145;28;20284;-80
2022/09/29 09:22:21;;;;;;;15.60;11.33;;;11.80;99.90;;;;;;4973383;28;20200;-81
2022/09/29 09:24:55;;;;;;;15.73;11.83;;;11.90;99.90;;;;;;4973494;28;20204;-80
2022/09/29 09:27:26;;;;;;;16.77;12.40;;;12.00;99.90;;;;;;4972312;28;20203;-79
2022/09/29 09:30:02;;;;;;;13.60;10.57;;;12.20;99.90;;;;;;4972572;28;20212;-80
2022/09/29 09:32:33;;;;;;;16.40;10.53;;;12.40;99.90;;;;;;4972081;28;20196;-81
2022/09/29 09:35:15;;;;;;;16.47;10.20;;;12.60;99.90;;;;;;4972269;28;20279;-81
2022/09/29 09:37:44;;;;;;;12.20;7.73;;;12.70;99.90;;;;;;4973195;28;20653;-81
2022/09/29 09:40:17;;;;;;;7.93;6.43;;;12.90;99.90;;;;;;4973237;28;20307;-82
2022/09/29 09:42:50;;;;;;;7.23;5.97;;;13.10;99.90;;;;;;4972993;28;20205;-80
2022/09/29 09:45:27;;;;;;;6.53;5.03;;;13.30;99.90;;;;;;4972819;28;20826;-81
2022/09/29 09:47:58;;;;;;;6.20;5.07;;;13.40;99.90;;;;;;4972488;28;20322;-81
2022/09/29 09:50:27;;;;;;;6.23;3.90;;;13.50;99.90;;;;;;4973023;28;20315;-81
2022/09/29 09:52:59;;;;;;;5.90;3.77;;;13.80;99.90;;;;;;4973006;28;20198;-80
2022/09/29 09:55:27;;;;;;;4.63;4.07;;;13.80;99.90;;;;;;4972236;28;20608;-80
2022/09/29 09:58:26;;;;;;;3.33;3.03;;;13.80;99.90;;;;;;4973275;28;20585;-81
2022/09/29 10:00:57;;;;;;;5.17;4.17;;;14.10;99.90;;;;;;4947876;28;20205;-81
2022/09/29 10:03:24;;;;;;;3.80;3.47;;;14.30;99.90;;;;;;4975802;28;20217;-81
2022/09/29 10:05:52;;;;;;;6.03;3.70;;;14.50;99.90;;;;;;4976104;28;20203;-79
2022/09/29 10:08:25;;;;;;;4.40;3.53;;;14.70;99.90;;;;;;4967950;28;20983;-80
2022/09/29 10:10:53;;;;;;;3.73;3.10;;;14.90;99.90;;;;;;4976286;28;20220;-79
2022/09/29 10:13:21;;;;;;;3.07;2.70;;;15.10;99.90;;;;;;4975509;28;20215;-79
2022/09/29 10:15:53;;;;;;;3.23;2.93;;;15.20;99.90;;;;;;4975240;28;20793;-81
2022/09/29 10:18:27;;;;;;;2.70;2.50;;;15.40;99.90;;;;;;4975442;28;20601;-78
2022/09/29 10:20:55;;;;;;;2.87;2.10;;;15.50;99.90;;;;;;4975682;28;20770;-77
2022/09/29 10:23:28;;;;;;;3.45;2.28;;;15.60;99.90;;;;;;4974114;28;20207;-79
2022/09/29 10:25:59;;;;;;;2.50;2.30;;;15.70;99.90;;;;;;4993715;28;20522;-82
2022/09/29 10:28:30;;;;;;;3.10;2.53;;;15.70;99.90;;;;;;4985230;28;20212;-79
2022/09/29 10:30:57;;;;;;;2.65;1.88;;;15.80;99.90;;;;;;4974508;28;20224;-80
2022/09/29 10:33:25;;;;;;;2.13;1.92;;;15.80;99.90;;;;;;4975188;28;20296;-80
2022/09/29 10:36:08;;;;;;;1.85;1.38;;;15.90;99.90;;;;;;4974990;28;20217;-79
2022/09/29 10:38:36;;;;;;;1.67;1.23;;;15.90;99.90;;;;;;4974945;28;20208;-81
2022/09/29 10:41:04;;;;;;;1.52;1.42;;;15.90;99.90;;;;;;4976010;28;20216;-82
2022/09/29 10:43:37;;;;;;;3.97;1.77;;;16.00;99.90;;;;;;4975867;28;20201;-83
2022/09/29 10:46:04;;;;;;;2.75;1.17;;;16.10;99.90;;;;;;4976408;28;20192;-82
2022/09/29 10:48:31;;;;;;;2.13;1.10;;;16.20;99.90;;;;;;4976201;28;20238;-82
2022/09/29 10:51:00;;;;;;;1.92;1.35;;;16.30;99.90;;;;;;4975561;28;20224;-84
2022/09/29 10:53:36;;;;;;;1.17;1.08;;;16.40;99.90;;;;;;4983042;28;20720;-83
2022/09/29 10:56:14;;;;;;;1.58;1.33;;;16.50;99.90;;;;;;4995459;28;20204;-83
2022/09/29 10:58:43;;;;;;;1.63;1.20;;;16.60;99.90;;;;;;4995101;28;20298;-83
2022/09/29 11:01:13;;;;;;;1.63;1.33;;;16.70;99.90;;;;;;4995915;28;20204;-84
2022/09/29 11:03:46;;;;;;;4.03;1.92;;;16.80;96.60;;;;;;4983739;28;20204;-84
2022/09/29 11:06:14;;;;;;;1.80;1.70;;;17.00;99.90;;;;;;4993085;28;20640;-82
2022/09/29 11:09:01;;;;;;;3.05;2.30;;;17.20;93.00;;;;;;4995467;28;20200;-83
2022/09/29 11:11:30;;;;;;;3.75;2.35;;;17.30;42.30;;;;;;4995041;28;20679;-83
2022/09/29 11:13:58;;;;;;;2.72;2.10;;;17.40;10.60;;;;;;4980192;28;20300;-83
2022/09/29 11:16:31;;;;;;;1.98;1.77;;;17.60;7.80;;;;;;4976340;28;20207;-84
2022/09/29 11:19:04;;;;;;;5.75;3.13;;;17.70;23.00;;;;;;4976863;28;20223;-82
2022/09/29 11:22:06;;;;;;;3.53;3.05;;;17.90;1.00;;;;;;4976664;28;20208;-84
2022/09/29 11:24:56;;;;;;;6.03;2.40;;;18.00;1.00;;;;;;4976443;28;20530;-84
2022/09/29 11:27:32;;;;;;;3.08;2.22;;;18.20;1.00;;;;;;4977244;28;20296;-82
2022/09/29 11:30:05;;;;;;;2.65;1.90;;;18.20;1.00;;;;;;4978354;28;20216;-83
2022/09/29 11:32:44;;;;;;;3.72;1.50;;;18.30;1.00;;;;;;4977238;28;20193;-84
2022/09/29 11:35:22;;;;;;;2.25;1.77;;;18.50;1.00;;;;;;4976123;28;20254;-84
2022/09/29 11:38:06;;;;;;;1.48;1.38;;;18.70;1.00;;;;;;4976467;28;20203;-84
2022/09/29 11:40:46;;;;;;;2.58;1.70;;;18.90;1.00;;;;;;4976430;28;20192;-83
2022/09/29 11:43:30;;;;;;;3.65;1.52;;;18.90;1.00;;;;;;4976257;28;20600;-85
2022/09/29 11:46:07;;;;;;;2.17;1.40;;;19.00;99.90;;;;;;4986312;28;20221;-80
2022/09/29 11:49:10;;;;;;;1.88;1.10;;;18.80;1.00;;;;;;4975651;28;20204;-83
2022/09/29 11:51:53;;;;;;;4.95;1.50;;;18.50;25.30;;;;;;4956546;28;20236;-83
2022/09/29 11:54:36;;;;;;;2.47;1.60;;;18.10;1.00;;;;;;4975113;28;20205;-85
2022/09/29 11:57:12;;;;;;;2.55;1.45;;;17.60;1.00;;;;;;4974473;28;20653;-82
2022/09/29 11:59:55;;;;;;;2.60;1.58;;;17.30;1.00;;;;;;4974597;28;20188;-79
2022/09/29 12:02:55;;;;;;;2.17;1.45;;;17.10;99.90;;;;;;4973792;28;20251;-80
2022/09/29 12:05:29;;;;;;;3.20;1.38;;;16.80;1.00;;;;;;4973200;28;20651;-80
2022/09/29 12:08:09;;;;;;;3.03;1.70;;;16.60;99.90;;;;;;4974011;28;20207;-78
2022/09/29 12:10:50;;;;;;;1.50;1.38;;;16.40;99.90;;;;;;4974066;28;20213;-78
2022/09/29 12:13:28;;;;;;;2.22;1.10;;;16.30;1.00;;;;;;4974155;28;20196;-79
2022/09/29 12:16:00;;;;;;;4.25;1.50;;;16.20;1.00;;;;;;4973379;28;20317;-79
2022/09/29 12:18:32;;;;;;;2.70;1.63;;;16.10;1.00;;;;;;4973795;28;20201;-79
2022/09/29 12:21:03;;;;;;;4.25;1.60;;;16.00;1.00;;;;;;4973885;28;20508;-79
2022/09/29 12:23:32;;;;;;;2.97;1.80;;;16.00;1.00;;;;;;4972373;28;20217;-79
2022/09/29 12:26:05;;;;;;;2.55;1.70;;;15.90;1.00;;;;;;4973338;28;20636;-79
2022/09/29 12:28:40;;;;;;;1.23;1.08;;;15.80;1.00;;;;;;4973851;28;20224;-79
2022/09/29 12:31:13;;;;;;;1.98;1.20;;;15.60;13.70;;;;;;4972896;28;20208;-79
2022/09/29 12:33:43;;;;;;;1.75;1.35;;;15.70;90.80;;;;;;4973559;28;20189;-79
2022/09/29 12:39:16;;;;;;;3.55;1.95;;;16.30;99.90;;;;;;4973299;28;20608;-80
2022/09/29 12:41:49;;;;;;;2.08;1.52;;;16.50;1.00;;;;;;4973615;28;20270;-81
2022/09/29 12:44:23;;;;;;;1.88;1.40;;;16.70;1.00;;;;;;4973481;28;20294;-79
2022/09/29 12:46:54;;;;;;;2.88;1.40;;;16.80;1.00;;;;;;4974080;28;20251;-82
2022/09/29 12:49:26;;;;;;;1.98;1.58;;;16.90;1.00;;;;;;4974044;28;20200;-80
2022/09/29 12:51:56;;;;;;;2.22;1.20;;;17.00;1.00;;;;;;4973788;28;20230;-79
2022/09/29 12:54:28;;;;;;;2.17;1.63;;;17.20;1.00;;;;;;4973988;28;20236;-83
2022/09/29 12:57:00;;;;;;;2.40;1.38;;;17.40;1.00;;;;;;4973995;28;20200;-82
2022/09/29 12:59:37;;;;;;;2.50;1.35;;;17.50;1.00;;;;;;4973515;28;20290;-81
2022/09/29 13:02:23;;;;;;;1.67;1.38;;;17.50;1.00;;;;;;4974063;28;20578;-82
2022/09/29 13:05:21;;;;;;;1.58;1.20;;;17.40;1.00;;;;;;4984085;28;20230;-81
2022/09/29 13:08:24;;;;;;;2.38;1.25;;;17.30;99.90;;;;;;4993832;28;20199;-81
2022/09/29 13:11:02;;;;;;;1.33;1.15;;;17.10;1.00;;;;;;4993830;28;20287;-84
2022/09/29 13:14:05;;;;;;;1.85;1.05;;;17.00;1.00;;;;;;4993472;28;20298;-82
2022/09/29 13:16:52;;;;;;;1.20;0.90;;;17.00;1.00;;;;;;4993460;28;20202;-83
2022/09/29 13:19:40;;;;;;;2.45;0.85;;;17.20;1.00;;;;;;4989360;28;20607;-83